Time;durP1;ratioP1;P1;durP2;ratioP2;P2;SDS_P1;SDS_P2;PMS_P1;PMS_P2;Temp;Humidity;BMP_temperature;BMP_pressure;BME280_temperature;BME280_humidity;BME280_pressure;Samples;Min_cycle;Max_cycle;Signal;HPM_P1;HPM_P2
2022/05/23 00:00:11;;;;;;;13.20;10.30;;;;;;;9.19;93.18;98677.69;105366;1268;73432;-79
2022/05/23 00:02:58;;;;;;;13.00;10.00;;;;;;;9.15;93.30;98679.57;105286;1268;61384;-81
2022/05/23 00:05:25;;;;;;;13.10;9.90;;;;;;;9.10;93.43;98681.16;105076;1269;61474;-82
2022/05/23 00:07:53;;;;;;;13.60;9.90;;;;;;;9.06;93.73;98679.64;105304;1268;74138;-80
2022/05/23 00:10:21;;;;;;;11.50;9.90;;;;;;;9.00;93.88;98681.80;105317;1268;68100;-80
2022/05/23 00:12:48;;;;;;;13.10;9.80;;;;;;;8.94;93.93;98684.11;105349;1268;75058;-79
2022/05/23 00:15:16;;;;;;;13.30;10.00;;;;;;;8.90;94.38;98683.52;105283;1268;61260;-79
2022/05/23 00:17:44;;;;;;;15.40;11.40;;;;;;;8.87;94.89;98682.10;105298;1268;61834;-77
2022/05/23 00:20:14;;;;;;;12.20;11.00;;;;;;;8.84;95.54;98684.77;105310;1268;76512;-80
2022/05/23 00:22:41;;;;;;;13.00;11.60;;;;;;;8.82;96.01;98687.25;105271;1268;69502;-80
2022/05/23 00:25:09;;;;;;;15.60;11.30;;;;;;;8.78;96.12;98685.66;105300;1268;73166;-80
2022/05/23 00:27:39;;;;;;;17.90;14.00;;;;;;;8.73;96.43;98689.60;105272;1268;61350;-80
2022/05/23 00:30:09;;;;;;;18.10;13.50;;;;;;;8.67;96.74;98692.93;105259;1268;61258;-80
2022/05/23 00:35:21;;;;;;;21.80;14.00;;;;;;;8.62;98.01;98701.11;105226;1271;68211;-80
2022/05/23 00:37:50;;;;;;;17.60;14.00;;;;;;;8.58;97.94;98702.73;105206;1268;74347;-79
2022/05/23 00:40:42;;;;;;;22.90;15.20;;;;;;;8.52;97.95;98702.59;105291;1268;61278;-82
2022/05/23 00:43:19;;;;;;;20.50;14.00;;;;;;;8.48;98.44;98702.66;105237;1268;61276;-82
2022/05/23 00:45:48;;;;;;;18.20;14.00;;;;;;;8.46;99.16;98704.34;105059;1267;75334;-80
2022/05/23 00:48:19;;;;;;;19.00;13.60;;;;;;;8.45;99.43;98700.89;105278;1268;69008;-82
2022/05/23 00:50:50;;;;;;;18.50;13.30;;;;;;;8.43;99.34;98704.97;105257;1268;74275;-81
2022/05/23 00:53:24;;;;;;;19.70;13.80;;;;;;;8.40;99.55;98705.11;105228;1268;61396;-80
2022/05/23 00:55:51;;;;;;;18.50;14.60;;;;;;;8.37;99.72;98708.99;105264;1268;61504;-81
2022/05/23 00:58:22;;;;;;;16.30;13.40;;;;;;;8.33;99.74;98708.14;105285;1268;75320;-81
2022/05/23 01:00:51;;;;;;;17.60;14.00;;;;;;;8.29;99.90;98713.74;105276;1268;69173;-80
2022/05/23 01:03:19;;;;;;;21.80;15.60;;;;;;;8.26;100.00;98714.97;105446;1268;74576;-81
2022/05/23 01:05:47;;;;;;;21.40;15.20;;;;;;;8.23;100.00;98713.55;105696;1268;61238;-79
2022/05/23 01:08:16;;;;;;;19.90;16.50;;;;;;;8.21;100.00;98711.77;105223;1267;61265;-79
2022/05/23 01:10:43;;;;;;;21.90;15.80;;;;;;;8.18;100.00;98712.64;105262;1268;75314;-79
2022/05/23 01:13:10;;;;;;;22.70;15.90;;;;;;;8.16;100.00;98710.13;105270;1268;70180;-81
2022/05/23 01:15:36;;;;;;;23.90;15.70;;;;;;;8.14;100.00;98707.58;105040;1268;74344;-79
2022/05/23 01:18:03;;;;;;;21.00;15.60;;;;;;;8.12;100.00;98702.03;105225;1268;61384;-79
2022/05/23 01:20:30;;;;;;;18.40;14.60;;;;;;;8.10;100.00;98705.56;105269;1268;61993;-75
2022/05/23 01:23:22;;;;;;;20.50;16.80;;;;;;;8.05;100.00;98705.10;105106;1268;61432;-81
2022/05/23 01:25:48;;;;;;;19.40;16.00;;;;;;;8.00;100.00;98709.15;105236;1268;69337;-80
2022/05/23 01:28:16;;;;;;;24.20;16.00;;;;;;;7.97;100.00;98713.04;105236;1267;73418;-79
2022/05/23 01:30:45;;;;;;;18.20;14.30;;;;;;;7.93;100.00;98709.73;105400;1268;61292;-82
2022/05/23 01:33:13;;;;;;;19.00;15.90;;;;;;;7.88;100.00;98706.85;105335;1268;61728;-80
2022/05/23 01:35:41;;;;;;;17.90;14.60;;;;;;;7.86;100.00;98708.60;105399;1268;76701;-81
2022/05/23 01:38:09;;;;;;;19.50;15.50;;;;;;;7.81;100.00;98704.30;105323;1267;69414;-81
2022/05/23 01:40:35;;;;;;;21.50;15.00;;;;;;;7.77;100.00;98702.55;105342;1268;73370;-81
2022/05/23 01:43:02;;;;;;;20.50;15.70;;;;;;;7.74;100.00;98706.50;105284;1269;61402;-80
2022/05/23 01:45:32;;;;;;;21.80;16.40;;;;;;;7.67;100.00;98707.27;105334;1268;61835;-83
2022/05/23 01:47:59;;;;;;;22.30;17.20;;;;;;;7.61;100.00;98705.81;105365;1268;75330;-82
2022/05/23 01:50:26;;;;;;;23.40;16.00;;;;;;;7.57;100.00;98705.56;105306;1268;68377;-80
2022/05/23 01:52:53;;;;;;;23.30;16.30;;;;;;;7.54;100.00;98700.05;105335;1268;72474;-81
2022/05/23 01:55:21;;;;;;;21.20;16.10;;;;;;;7.53;100.00;98697.99;105310;1268;61388;-80
2022/05/23 01:57:48;;;;;;;21.00;15.50;;;;;;;7.53;100.00;98695.20;105330;1267;61779;-81
2022/05/23 02:03:15;;;;;;;17.20;14.90;;;;;;;7.47;100.00;98699.02;105277;1268;70430;-82
2022/05/23 02:05:41;;;;;;;17.50;14.70;;;;;;;7.45;100.00;98698.78;105320;1268;74717;-80
2022/05/23 02:08:08;;;;;;;20.10;15.50;;;;;;;7.43;100.00;98699.48;105289;1268;61311;-80
2022/05/23 02:10:35;;;;;;;21.20;16.00;;;;;;;7.39;100.00;98697.96;105342;1268;62057;-81
2022/05/23 02:13:02;;;;;;;20.50;16.50;;;;;;;7.33;100.00;98696.34;105293;1267;61360;-80
2022/05/23 02:15:32;;;;;;;19.80;15.80;;;;;;;7.26;100.00;98696.91;105029;1268;67554;-80
2022/05/23 02:18:03;;;;;;;20.20;15.90;;;;;;;7.20;100.00;98698.36;105481;1268;74202;-80
2022/05/23 02:20:30;;;;;;;19.10;15.50;;;;;;;7.16;100.00;98701.56;105264;1268;61297;-81
2022/05/23 02:22:57;;;;;;;20.00;16.80;;;;;;;7.13;100.00;98698.38;105339;1268;61252;-81
2022/05/23 02:25:25;;;;;;;18.50;15.30;;;;;;;7.12;100.00;98695.84;105311;1268;61346;-80
2022/05/23 02:27:52;;;;;;;18.30;14.50;;;;;;;7.10;100.00;98695.05;105452;1268;69223;-80
2022/05/23 02:30:19;;;;;;;19.80;16.50;;;;;;;7.08;100.00;98698.01;105379;1267;74293;-81
2022/05/23 02:32:46;;;;;;;18.70;16.00;;;;;;;7.05;100.00;98696.38;105276;1268;61316;-81
2022/05/23 02:35:17;;;;;;;20.10;18.00;;;;;;;7.04;100.00;98699.77;105336;1268;61994;-82
2022/05/23 02:37:44;;;;;;;21.10;17.00;;;;;;;7.01;100.00;98697.28;105315;1268;76640;-80
2022/05/23 02:40:12;;;;;;;17.60;15.70;;;;;;;7.00;100.00;98693.13;105460;1268;69154;-81
2022/05/23 02:42:38;;;;;;;23.30;17.50;;;;;;;6.98;100.00;98694.83;105221;1267;73394;-80
2022/05/23 02:45:06;;;;;;;20.60;16.40;;;;;;;6.96;100.00;98693.73;105351;1268;61284;-81
2022/05/23 02:47:33;;;;;;;19.70;15.80;;;;;;;6.97;100.00;98693.81;105325;1268;61951;-80
2022/05/23 02:50:00;;;;;;;18.80;15.10;;;;;;;6.98;100.00;98691.45;105304;1268;76406;-80
2022/05/23 02:52:26;;;;;;;17.60;14.70;;;;;;;7.02;100.00;98688.22;105336;1268;69780;-79
2022/05/23 02:54:53;;;;;;;20.10;15.40;;;;;;;7.09;100.00;98683.61;105310;1267;74438;-80
2022/05/23 02:57:20;;;;;;;17.50;15.50;;;;;;;7.15;100.00;98682.90;105351;1268;61394;-81
2022/05/23 02:59:46;;;;;;;17.60;15.60;;;;;;;7.21;100.00;98680.60;105295;1267;61211;-80
2022/05/23 03:04:58;;;;;;;17.90;13.50;;;;;;;7.25;100.00;98683.38;105126;1268;70361;-81
2022/05/23 03:07:25;;;;;;;18.10;14.50;;;;;;;7.24;100.00;98685.01;105309;1268;61386;-81
2022/05/23 03:09:51;;;;;;;20.60;14.80;;;;;;;7.24;100.00;98689.42;105397;1268;61291;-79
2022/05/23 03:12:18;;;;;;;16.50;14.30;;;;;;;7.28;100.00;98694.51;105393;1268;61378;-80
2022/05/23 03:14:44;;;;;;;20.00;14.80;;;;;;;7.32;100.00;98698.02;105298;1268;73703;-80
2022/05/23 03:17:11;;;;;;;18.60;14.60;;;;;;;7.35;100.00;98698.68;105278;1268;61337;-82
2022/05/23 03:19:39;;;;;;;19.10;15.30;;;;;;;7.40;100.00;98700.50;105273;1268;61290;-80
2022/05/23 03:27:39;;;;;;;17.60;15.80;;;;;;;9.00;100.00;98689.92;105280;1268;75377;-80
2022/05/23 03:30:07;;;;;;;16.80;15.10;;;;;;;9.95;100.00;98691.70;105334;1268;69127;-80
2022/05/23 03:32:34;;;;;;;16.80;14.50;;;;;;;10.81;100.00;98689.04;105355;1268;73569;-81
2022/05/23 03:35:01;;;;;;;13.70;12.20;;;;;;;11.57;97.93;98684.27;105622;1268;61360;-81
2022/05/23 03:37:28;;;;;;;14.30;12.80;;;;;;;12.14;93.83;98680.94;105344;1268;61265;-80
2022/05/23 03:39:54;;;;;;;12.70;11.40;;;;;;;12.71;90.16;98677.81;105606;1268;75517;-79
2022/05/23 03:42:21;;;;;;;12.70;11.20;;;;;;;13.32;87.26;98676.23;105304;1268;69284;-81
2022/05/23 03:44:47;;;;;;;13.00;11.70;;;;;;;14.00;85.15;98683.59;105277;1268;61373;-81
2022/05/23 03:47:14;;;;;;;13.70;12.30;;;;;;;14.58;82.55;98684.46;105324;1268;61339;-81
2022/05/23 03:49:41;;;;;;;16.20;14.50;;;;;;;15.10;80.11;98692.35;105362;1268;61705;-81
2022/05/23 03:52:07;;;;;;;17.10;14.40;;;;;;;15.55;78.21;98694.63;105327;1268;76097;-80
2022/05/23 03:54:34;;;;;;;15.20;13.60;;;;;;;16.00;76.11;98693.35;105309;1268;69424;-81
2022/05/23 03:57:03;;;;;;;14.60;13.00;;;;;;;16.36;74.18;98690.05;104940;1271;61246;-79
2022/05/23 03:59:31;;;;;;;14.10;12.60;;;;;;;16.81;72.32;98692.37;105205;1268;61279;-79
2022/05/23 04:01:58;;;;;;;14.30;12.40;;;;;;;17.19;70.66;98696.58;105270;1268;62085;-81
2022/05/23 04:04:26;;;;;;;12.10;10.60;;;;;;;17.56;69.13;98701.00;105382;1268;75939;-79
2022/05/23 04:06:58;;;;;;;11.80;10.70;;;;;;;17.93;67.95;98703.21;105341;1268;69373;-80
2022/05/23 04:09:25;;;;;;;13.00;10.70;;;;;;;18.27;66.68;98704.52;105254;1268;74525;-80
2022/05/23 04:11:52;;;;;;;11.50;10.40;;;;;;;18.57;65.59;98707.04;105191;1268;61429;-78
2022/05/23 04:14:18;;;;;;;11.80;10.70;;;;;;;18.85;64.61;98709.33;105008;1268;61273;-80
2022/05/23 04:16:47;;;;;;;10.80;9.70;;;;;;;19.11;63.55;98709.77;105272;1268;61291;-79
2022/05/23 04:19:16;;;;;;;10.50;9.50;;;;;;;19.31;62.56;98709.48;105153;1268;69150;-79
2022/05/23 04:21:44;;;;;;;11.10;10.10;;;;;;;19.33;61.94;98709.04;104996;1269;73975;-79
2022/05/23 04:24:13;;;;;;;11.00;9.90;;;;;;;19.44;61.11;98711.63;105458;1268;61265;-79
2022/05/23 04:26:39;;;;;;;11.20;10.00;;;;;;;19.62;60.63;98712.41;105324;1268;61314;-80
2022/05/23 04:29:06;;;;;;;10.80;9.60;;;;;;;19.87;59.75;98705.69;105313;1267;61394;-81
2022/05/23 04:31:35;;;;;;;12.60;9.40;;;;;;;20.14;59.44;98703.21;105307;1268;69420;-79
2022/05/23 04:36:50;;;;;;;11.20;10.10;;;;;;;20.42;57.72;98706.09;105269;1268;61313;-79
2022/05/23 04:39:17;;;;;;;11.50;10.40;;;;;;;20.75;57.25;98699.46;105561;1268;61252;-78
2022/05/23 04:41:44;;;;;;;11.60;9.80;;;;;;;20.94;56.52;98693.37;105445;1268;75933;-79
2022/05/23 04:44:10;;;;;;;11.50;10.50;;;;;;;21.07;56.18;98691.50;105328;1268;61281;-80
2022/05/23 04:49:39;;;;;;;12.30;9.30;;;;;;;21.39;55.93;98693.04;105326;1268;73363;-80
2022/05/23 04:49:41;;;;;;;12.50;10.00;;;;;;;21.66;54.73;98687.95;105235;1268;61369;-79
2022/05/23 04:52:13;;;;;;;13.10;11.80;;;;;;;21.83;54.10;98682.98;105313;1268;61477;-79
2022/05/23 04:54:41;;;;;;;11.90;10.60;;;;;;;22.05;53.39;98689.83;105077;1268;74736;-78
2022/05/23 04:57:10;;;;;;;10.30;9.30;;;;;;;22.13;52.98;98688.12;105088;1268;69901;-79
2022/05/23 04:59:36;;;;;;;10.80;9.00;;;;;;;22.34;52.64;98686.14;105400;1268;73384;-79
2022/05/23 05:02:04;;;;;;;10.60;9.50;;;;;;;22.53;52.11;98684.79;105479;1268;61239;-80
2022/05/23 05:04:31;;;;;;;9.70;8.60;;;;;;;22.61;51.32;98683.36;105359;1268;61316;-80
2022/05/23 05:06:59;;;;;;;7.50;6.50;;;;;;;22.62;50.85;98685.80;105444;1267;74909;-79
2022/05/23 05:09:25;;;;;;;7.00;6.30;;;;;;;22.62;50.37;98684.17;105083;1269;68138;-80
2022/05/23 05:11:52;;;;;;;8.30;6.40;;;;;;;22.09;50.76;98682.40;105544;1268;73181;-79
2022/05/23 05:14:18;;;;;;;8.40;6.70;;;;;;;21.89;50.67;98686.11;105294;1268;61368;-80
2022/05/23 05:16:45;;;;;;;8.10;5.70;;;;;;;22.10;50.01;98686.31;105361;1268;61251;-81
2022/05/23 05:19:11;;;;;;;5.60;5.10;;;;;;;21.60;49.89;98691.30;105343;1268;75360;-81
2022/05/23 05:21:38;;;;;;;6.70;6.10;;;;;;;21.77;49.44;98688.84;105289;1268;61278;-80
2022/05/23 05:24:06;;;;;;;6.10;5.40;;;;;;;22.07;49.23;98691.03;105337;1267;73297;-80
2022/05/23 05:26:32;;;;;;;4.90;4.50;;;;;;;22.25;48.77;98692.77;105321;1267;61269;-81
2022/05/23 05:28:59;;;;;;;5.70;5.20;;;;;;;22.49;47.86;98695.17;105320;1268;61268;-80
2022/05/23 05:31:28;;;;;;;5.50;5.00;;;;;;;22.71;47.40;98698.51;105327;1268;75136;-79
2022/05/23 05:34:21;;;;;;;4.50;4.10;;;;;;;22.82;46.68;98702.95;105271;1267;69492;-80
2022/05/23 05:36:59;;;;;;;4.70;4.00;;;;;;;22.95;46.02;98701.48;105221;1268;71423;-80
2022/05/23 05:39:31;;;;;;;6.00;3.60;;;;;;;23.11;45.41;98699.90;105262;1268;62667;-79
2022/05/23 05:42:09;;;;;;;4.30;3.20;;;;;;;23.30;44.05;98696.64;105129;1268;61263;-79
2022/05/23 05:44:41;;;;;;;3.90;3.50;;;;;;;23.39;43.33;98699.35;105364;1268;75144;-81
2022/05/23 05:47:12;;;;;;;4.40;3.20;;;;;;;23.53;43.15;98701.19;105299;1268;69445;-81
2022/05/23 05:49:43;;;;;;;2.50;2.30;;;;;;;23.69;41.82;98697.53;105535;1268;73386;-80
2022/05/23 05:52:13;;;;;;;3.80;2.50;;;;;;;23.46;40.93;98699.71;105396;1268;61926;-78
2022/05/23 05:54:41;;;;;;;2.90;2.70;;;;;;;23.45;41.15;98706.23;105396;1268;61146;-80
2022/05/23 05:57:10;;;;;;;2.80;2.40;;;;;;;23.54;40.90;98709.83;105643;1268;76147;-81
2022/05/23 05:59:36;;;;;;;3.80;2.80;;;;;;;23.66;40.72;98706.45;105622;1268;70608;-81
2022/05/23 06:02:03;;;;;;;3.40;2.60;;;;;;;23.73;40.32;98702.98;105555;1268;73604;-79
2022/05/23 06:04:29;;;;;;;3.60;2.50;;;;;;;23.70;40.21;98710.48;105287;1268;61377;-79
2022/05/23 06:12:26;;;;;;;2.90;2.70;;;;;;;23.71;39.04;98719.66;105303;1268;69381;-80
2022/05/23 06:14:52;;;;;;;4.30;3.10;;;;;;;23.76;38.87;98716.49;104957;1269;61272;-81
2022/05/23 06:17:19;;;;;;;3.50;3.20;;;;;;;23.76;38.60;98716.54;105350;1268;61298;-80
2022/05/23 06:19:47;;;;;;;3.60;2.80;;;;;;;23.73;38.32;98720.18;105321;1268;61281;-82
2022/05/23 06:22:15;;;;;;;2.50;2.30;;;;;;;23.51;38.02;98719.93;105594;1268;75027;-79
2022/05/23 06:24:41;;;;;;;2.90;2.50;;;;;;;23.17;38.03;98724.05;105301;1268;70642;-79
2022/05/23 06:27:09;;;;;;;3.90;2.60;;;;;;;22.99;38.14;98726.36;105315;1268;73276;-81
2022/05/23 06:29:38;;;;;;;3.50;2.30;;;;;;;22.85;38.36;98727.81;105296;1269;61364;-81
2022/05/23 06:32:06;;;;;;;3.10;2.30;;;;;;;22.80;38.72;98720.59;105368;1268;62634;-78
2022/05/23 06:34:32;;;;;;;2.40;2.20;;;;;;;22.73;38.85;98716.52;105431;1268;76953;-79
2022/05/23 06:36:59;;;;;;;3.10;2.20;;;;;;;22.80;38.83;98719.10;105428;1268;61174;-76
2022/05/23 06:39:26;;;;;;;3.90;2.20;;;;;;;22.94;39.43;98719.02;105363;1268;74771;-78
2022/05/23 06:41:54;;;;;;;5.10;2.20;;;;;;;23.15;39.17;98718.63;105410;1268;61318;-79
2022/05/23 06:44:20;;;;;;;3.30;2.40;;;;;;;23.27;38.82;98716.14;105401;1268;61258;-78
2022/05/23 06:46:47;;;;;;;2.50;2.30;;;;;;;23.42;38.60;98712.73;105372;1268;61260;-69
2022/05/23 06:49:13;;;;;;;3.20;2.90;;;;;;;23.44;38.52;98710.83;105519;1268;61220;-71
2022/05/23 06:51:41;;;;;;;2.60;2.20;;;;;;;23.47;38.61;98706.17;105370;1268;61376;-70
2022/05/23 06:54:07;;;;;;;2.60;2.40;;;;;;;23.47;38.44;98709.21;105378;1268;61376;-70
2022/05/23 06:56:34;;;;;;;3.20;2.90;;;;;;;23.40;38.24;98707.22;105390;1268;61354;-70
2022/05/23 06:59:01;;;;;;;3.40;3.10;;;;;;;23.26;38.19;98705.71;105361;1268;76327;-71
2022/05/23 07:01:27;;;;;;;3.50;3.20;;;;;;;23.29;37.90;98698.02;105338;1268;69164;-70
2022/05/23 07:03:54;;;;;;;2.70;2.50;;;;;;;23.45;36.91;98692.04;105383;1268;73159;-78
2022/05/23 07:14:36;;;;;;;3.40;1.90;;;;;;;22.43;38.15;98679.14;105307;1268;69643;-73
2022/05/23 07:17:02;;;;;;;3.60;2.40;;;;;;;22.54;38.43;98683.39;105327;1268;73623;-72
2022/05/23 07:19:29;;;;;;;3.40;2.80;;;;;;;22.43;37.90;98676.21;105238;1268;61294;-72
2022/05/23 07:21:59;;;;;;;3.20;2.90;;;;;;;21.93;37.55;98677.86;105293;1268;61194;-73
2022/05/23 07:24:27;;;;;;;4.00;2.60;;;;;;;21.41;37.78;98675.23;105260;1268;73320;-74
2022/05/23 07:26:54;;;;;;;3.00;2.70;;;;;;;20.96;37.62;98679.88;105292;1268;70731;-73
2022/05/23 07:29:25;;;;;;;3.50;2.70;;;;;;;20.64;38.07;98673.27;105286;1268;72482;-73
2022/05/23 07:31:53;;;;;;;4.00;3.20;;;;;;;20.36;38.48;98674.08;105279;1268;61399;-73
2022/05/23 07:34:20;;;;;;;4.90;3.60;;;;;;;20.16;38.70;98673.98;105014;1271;61436;-73
2022/05/23 07:36:48;;;;;;;3.40;3.10;;;;;;;19.86;38.64;98672.96;105306;1269;74192;-73
2022/05/23 07:39:15;;;;;;;3.00;2.30;;;;;;;19.50;38.95;98671.04;105353;1268;68218;-72
2022/05/23 07:41:43;;;;;;;5.20;2.40;;;;;;;19.46;40.19;98667.09;105244;1268;73203;-73
2022/05/23 07:44:11;;;;;;;3.60;2.40;;;;;;;19.64;40.59;98662.56;105259;1267;61291;-71
2022/05/23 07:46:41;;;;;;;5.50;2.40;;;;;;;19.71;40.72;98664.55;105265;1268;61212;-73
2022/05/23 07:49:08;;;;;;;2.90;2.30;;;;;;;19.77;41.37;98661.81;105493;1268;75180;-73
2022/05/23 07:51:34;;;;;;;2.10;1.90;;;;;;;19.89;41.47;98659.79;105280;1268;68892;-73
2022/05/23 08:02:18;;;;;;;3.00;2.30;;;;;;;19.81;39.75;98654.24;105284;1268;75268;-72
2022/05/23 08:04:44;;;;;;;2.40;2.20;;;;;;;19.75;39.53;98653.50;105301;1267;69611;-72
2022/05/23 08:07:11;;;;;;;2.50;1.90;;;;;;;19.55;39.35;98652.42;105310;1268;61266;-72
2022/05/23 08:09:41;;;;;;;2.30;1.80;;;;;;;19.41;39.82;98648.73;105315;1269;61326;-74
2022/05/23 08:12:11;;;;;;;3.30;2.10;;;;;;;19.36;39.50;98651.83;105300;1268;61139;-73
2022/05/23 08:14:38;;;;;;;4.70;2.30;;;;;;;19.30;39.69;98646.73;105357;1268;76167;-73
2022/05/23 08:17:05;;;;;;;3.50;2.00;;;;;;;19.25;39.32;98647.73;105326;1268;68230;-73
2022/05/23 08:19:32;;;;;;;2.10;1.90;;;;;;;19.26;39.43;98637.20;105309;1268;73756;-73
2022/05/23 08:21:59;;;;;;;2.70;2.20;;;;;;;19.17;38.85;98640.31;105341;1268;61247;-73
2022/05/23 08:24:26;;;;;;;2.00;1.60;;;;;;;18.97;39.14;98644.32;105332;1268;61262;-72
2022/05/23 08:26:53;;;;;;;2.60;2.00;;;;;;;18.90;39.00;98642.73;105322;1267;61268;-72
2022/05/23 08:29:20;;;;;;;3.80;2.00;;;;;;;18.82;38.90;98637.27;105296;1268;69012;-73
2022/05/23 08:31:48;;;;;;;2.80;2.10;;;;;;;18.73;39.47;98639.27;105171;1271;72670;-72
2022/05/23 08:34:15;;;;;;;3.00;2.30;;;;;;;18.88;39.69;98633.61;105464;1268;61524;-72
2022/05/23 08:36:42;;;;;;;3.20;2.60;;;;;;;18.73;39.18;98636.77;105346;1268;61143;-73
2022/05/23 08:39:08;;;;;;;4.10;2.40;;;;;;;18.78;39.70;98637.73;105294;1268;61212;-72
2022/05/23 08:41:40;;;;;;;2.10;1.90;;;;;;;18.94;39.69;98635.70;105321;1268;61263;-73
2022/05/23 08:44:39;;;;;;;3.00;2.10;;;;;;;19.07;39.73;98632.77;105340;1268;73208;-74
2022/05/23 08:47:13;;;;;;;3.50;2.50;;;;;;;19.16;40.14;98623.88;105422;1268;61293;-73
2022/05/23 08:49:45;;;;;;;3.60;2.50;;;;;;;19.18;39.17;98626.45;104948;1269;61127;-73
2022/05/23 08:52:33;;;;;;;3.40;2.60;;;;;;;19.10;39.66;98629.10;105307;1267;75297;-73
2022/05/23 08:55:23;;;;;;;4.00;2.20;;;;;;;19.15;39.99;98629.30;105331;1268;69337;-73
2022/05/23 08:58:08;;;;;;;2.90;2.30;;;;;;;19.36;40.22;98625.89;104811;1274;73479;-74
2022/05/23 09:00:38;;;;;;;5.50;2.60;;;;;;;19.65;40.21;98618.58;104970;1274;61575;-73
2022/05/23 09:03:13;;;;;;;2.80;2.10;;;;;;;19.91;40.22;98614.65;105097;1274;61330;-73
2022/05/23 09:05:46;;;;;;;3.80;2.20;;;;;;;20.08;40.12;98612.17;104966;1274;74333;-74
2022/05/23 09:08:17;;;;;;;3.20;2.30;;;;;;;20.28;39.50;98610.98;104931;1272;69453;-74
2022/05/23 09:10:54;;;;;;;2.20;2.00;;;;;;;20.29;39.52;98608.87;104917;1274;73239;-74
2022/05/23 09:13:23;;;;;;;2.50;2.30;;;;;;;20.37;39.82;98611.23;104991;1273;61580;-72
2022/05/23 09:15:53;;;;;;;2.40;2.20;;;;;;;20.42;39.26;98613.00;105015;1274;61172;-72
2022/05/23 09:18:23;;;;;;;4.40;1.80;;;;;;;20.32;37.57;98605.88;104916;1277;75172;-74
2022/05/23 09:20:54;;;;;;;2.00;1.80;;;;;;;20.08;37.68;98608.87;105009;1273;68725;-74
2022/05/23 09:23:31;;;;;;;;;;;;;;;20.05;37.74;98607.45;105004;1274;74371;-73
2022/05/23 09:26:02;;;;;;;2.50;1.70;;;;;;;20.15;37.49;98602.44;105101;1274;61323;-72
2022/05/23 09:28:36;;;;;;;2.30;2.10;;;;;;;20.06;36.96;98601.03;104943;1273;61250;-73
2022/05/23 09:31:03;;;;;;;2.90;1.70;;;;;;;20.13;37.47;98598.90;105405;1268;72624;-73
2022/05/23 09:33:31;;;;;;;1.90;1.80;;;;;;;20.30;37.35;98594.49;105262;1268;69308;-73
2022/05/23 09:36:12;;;;;;;2.20;1.50;;;;;;;20.36;37.18;98594.51;104960;1268;72857;-72
2022/05/23 09:39:01;;;;;;;2.60;2.10;;;;;;;20.51;37.68;98596.95;105228;1268;61279;-73
2022/05/23 09:50:10;;;;;;;3.40;2.50;;;;;;;20.88;37.42;98593.08;105221;1268;73163;-74
2022/05/23 09:52:49;;;;;;;3.10;2.40;;;;;;;20.97;37.32;98591.48;105222;1268;61266;-73
2022/05/23 09:55:31;;;;;;;3.20;2.80;;;;;;;21.10;37.36;98589.98;105302;1268;61156;-73
2022/05/23 09:58:02;;;;;;;2.70;2.50;;;;;;;21.00;37.29;98588.59;105223;1268;76424;-73
2022/05/23 10:00:36;;;;;;;3.80;2.00;;;;;;;20.74;37.35;98588.98;104942;1274;68333;-74
2022/05/23 10:03:13;;;;;;;2.50;2.10;;;;;;;20.73;38.15;98591.11;104970;1272;73685;-73
2022/05/23 10:05:42;;;;;;;2.40;2.20;;;;;;;20.83;38.59;98587.92;105026;1274;61334;-72
2022/05/23 10:08:29;;;;;;;2.60;2.40;;;;;;;21.09;38.68;98582.33;105079;1274;61478;-72
2022/05/23 10:10:59;;;;;;;3.70;2.40;;;;;;;21.35;38.47;98584.48;104925;1274;75141;-74
2022/05/23 10:13:41;;;;;;;2.70;2.50;;;;;;;21.67;38.35;98580.53;105064;1274;70909;-72
2022/05/23 10:16:18;;;;;;;3.40;2.60;;;;;;;21.99;37.95;98576.52;104847;1275;73963;-73
2022/05/23 10:19:03;;;;;;;6.00;3.50;;;;;;;21.91;36.87;98573.17;104950;1274;62893;-74
2022/05/23 10:22:03;;;;;;;9.70;4.30;;;;;;;21.54;36.55;98577.77;104972;1274;61292;-74
2022/05/23 10:24:31;;;;;;;;;;;;;;;21.60;37.22;98579.02;105008;1274;76479;-73
2022/05/23 10:27:37;;;;;;;2.60;2.30;;;;;;;21.75;36.58;98577.40;105031;1274;69540;-73
2022/05/23 10:30:09;;;;;;;4.40;3.60;;;;;;;21.79;36.24;98576.20;104966;1274;73440;-74
2022/05/23 10:32:46;;;;;;;2.40;2.20;;;;;;;21.82;36.34;98573.17;105178;1271;61303;-73
2022/05/23 10:35:36;;;;;;;2.70;2.10;;;;;;;21.98;37.13;98574.83;105237;1271;61261;-72
2022/05/23 10:44:20;;;;;;;2.70;2.10;;;;;;;22.67;36.59;98565.52;104907;1274;74403;-73
2022/05/23 10:46:53;;;;;;;4.00;1.90;;;;;;;22.79;36.92;98561.14;104921;1274;61396;-72
2022/05/23 10:49:35;;;;;;;2.50;2.10;;;;;;;22.88;36.32;98563.33;104624;1274;61889;-73
2022/05/23 10:52:20;;;;;;;2.50;1.90;;;;;;;22.85;36.08;98563.16;104889;1274;74128;-73
2022/05/23 10:55:25;;;;;;;2.70;2.50;;;;;;;22.86;36.13;98562.05;104895;1274;68291;-73
2022/05/23 10:58:00;;;;;;;2.90;2.00;;;;;;;22.71;34.70;98552.93;104334;1281;73792;-73
2022/05/23 11:00:38;;;;;;;2.40;1.90;;;;;;;22.41;35.06;98553.73;104333;1281;61192;-73
2022/05/23 11:03:12;;;;;;;4.50;2.10;;;;;;;22.43;35.38;98551.50;104142;1281;61947;-72
2022/05/23 11:05:49;;;;;;;2.00;1.90;;;;;;;22.37;34.69;98548.02;104384;1281;75755;-73
2022/05/23 11:08:33;;;;;;;2.00;1.60;;;;;;;22.17;34.37;98542.80;104549;1281;69251;-73
2022/05/23 11:11:12;;;;;;;2.20;1.70;;;;;;;22.10;34.87;98541.15;104408;1281;72456;-71
2022/05/23 11:13:58;;;;;;;2.40;2.20;;;;;;;22.08;35.55;98539.64;104352;1281;61595;-73
2022/05/23 11:17:02;;;;;;;3.10;2.10;;;;;;;22.23;35.94;98529.08;104194;1281;61298;-72
2022/05/23 11:19:47;;;;;;;2.60;2.40;;;;;;;22.33;36.24;98528.66;103856;1287;76317;-73
2022/05/23 11:22:32;;;;;;;1.70;1.60;;;;;;;22.27;35.59;98530.66;103947;1284;69161;-74
2022/05/23 11:25:07;;;;;;;2.20;1.70;;;;;;;22.02;35.03;98523.54;104030;1284;73232;-73
2022/05/23 11:33:42;;;;;;;2.20;2.00;;;;;;;21.97;35.36;98518.75;103979;1284;75252;-74
2022/05/23 11:36:10;;;;;;;4.20;1.90;;;;;;;21.85;35.46;98517.04;104828;1277;68962;-73
2022/05/23 11:38:45;;;;;;;2.90;2.10;;;;;;;21.92;35.81;98516.42;104808;1277;73254;-73
2022/05/23 11:41:29;;;;;;;2.80;2.00;;;;;;;22.03;35.94;98514.63;104852;1277;61440;-73
2022/05/23 11:43:56;;;;;;;2.80;2.10;;;;;;;22.02;35.15;98514.27;104826;1277;61340;-73
2022/05/23 11:46:47;;;;;;;3.10;1.80;;;;;;;21.89;35.02;98506.83;104530;1277;76332;-72
2022/05/23 11:49:41;;;;;;;1.60;1.50;;;;;;;21.84;35.44;98508.17;104852;1277;70335;-73
2022/05/23 11:52:31;;;;;;;2.20;1.90;;;;;;;21.88;35.36;98507.52;104851;1277;73693;-74
2022/05/23 11:54:57;;;;;;;2.00;1.70;;;;;;;21.79;35.87;98501.34;104541;1280;61389;-73
2022/05/23 11:57:41;;;;;;;2.70;1.80;;;;;;;21.94;36.34;98503.69;105100;1271;61263;-74
2022/05/23 12:00:27;;;;;;;2.00;1.90;;;;;;;22.15;36.31;98497.58;105203;1271;75175;-73
2022/05/23 12:03:13;;;;;;;3.10;1.90;;;;;;;22.33;36.50;98493.13;105218;1271;69408;-73
2022/05/23 12:06:21;;;;;;;4.50;2.00;;;;;;;22.50;36.46;98488.52;105207;1271;74361;-72
2022/05/23 12:09:16;;;;;;;2.00;1.90;;;;;;;22.64;36.51;98486.20;105137;1269;61377;-73
2022/05/23 12:11:46;;;;;;;1.60;1.50;;;;;;;22.70;35.69;98486.14;105277;1271;61336;-75
2022/05/23 12:14:14;;;;;;;2.30;1.50;;;;;;;22.61;34.69;98476.30;105481;1270;73604;-73
2022/05/23 12:16:59;;;;;;;1.60;1.20;;;;;;;22.41;34.56;98472.04;105245;1271;68702;-74
2022/05/23 12:19:40;;;;;;;5.50;1.40;;;;;;;22.35;35.57;98470.46;105170;1271;73055;-73
2022/05/23 12:22:25;;;;;;;2.20;1.30;;;;;;;22.36;35.36;98468.02;105248;1271;61422;-72
2022/05/23 12:25:15;;;;;;;2.60;1.40;;;;;;;22.29;35.73;98467.31;105246;1271;61253;-73
2022/05/23 12:27:44;;;;;;;1.40;1.30;;;;;;;22.23;35.23;98466.80;104856;1274;76567;-74
2022/05/23 12:30:24;;;;;;;2.20;1.30;;;;;;;22.13;35.82;98457.38;104876;1274;69528;-72
2022/05/23 12:32:59;;;;;;;2.10;1.20;;;;;;;22.23;36.21;98454.40;104835;1274;73457;-73
2022/05/23 12:35:44;;;;;;;2.00;1.30;;;;;;;22.31;35.96;98457.92;104817;1274;61173;-73
2022/05/23 12:38:43;;;;;;;2.50;1.20;;;;;;;22.25;35.22;98452.67;104912;1274;61272;-73